Time;durP1;ratioP1;P1;durP2;ratioP2;P2;SDS_P1;SDS_P2;PMS_P1;PMS_P2;Temp;Humidity;BMP_temperature;BMP_pressure;BME280_temperature;BME280_humidity;BME280_pressure;Samples;Min_cycle;Max_cycle;Signal;HPM_P1;HPM_P2
2021/04/13 00:00:28;;;;;;;;;3.00;3.00;;;;;;;;3523907;39;113897;-67
2021/04/13 00:02:54;;;;;;;;;3.50;3.00;;;;;;;;3524001;39;112055;-67
2021/04/13 00:05:27;;;;;;;;;4.25;3.50;;;;;;;;3523901;39;113372;-67
2021/04/13 00:07:54;;;;;;;;;3.50;3.00;;;;;;;;3523524;39;114384;-68
2021/04/13 00:10:22;;;;;;;;;4.00;4.00;;;;;;;;3526711;39;112733;-67
2021/04/13 00:12:48;;;;;;;;;4.00;3.00;;;;;;;;3523679;39;113820;-68
2021/04/13 00:15:17;;;;;;;;;7.75;3.25;;;;;;;;3524009;39;111853;-67
2021/04/13 00:17:44;;;;;;;;;4.00;4.00;;;;;;;;3524040;39;113421;-68
2021/04/13 00:20:14;;;;;;;;;4.00;4.00;;;;;;;;3523417;39;114399;-67
2021/04/13 00:22:44;;;;;;;;;4.25;3.00;;;;;;;;3524062;39;112967;-68
2021/04/13 00:25:20;;;;;;;;;6.25;5.75;;;;;;;;3523873;39;113599;-67
2021/04/13 00:27:47;;;;;;;;;4.50;4.00;;;;;;;;3523629;39;112957;-67
2021/04/13 00:30:17;;;;;;;;;3.00;3.00;;;;;;;;3523949;39;111750;-68
2021/04/13 00:32:47;;;;;;;;;7.00;4.50;;;;;;;;3526241;39;113386;-68
2021/04/13 00:35:19;;;;;;;;;5.00;4.00;;;;;;;;3519028;39;112733;-67
2021/04/13 00:37:45;;;;;;;;;7.00;7.00;;;;;;;;3524009;39;115533;-68
2021/04/13 00:40:29;;;;;;;;;5.25;5.00;;;;;;;;3523236;39;113318;-68
2021/04/13 00:43:00;;;;;;;;;5.75;4.00;;;;;;;;3523773;39;112507;-67
2021/04/13 00:45:29;;;;;;;;;6.75;5.50;;;;;;;;3524002;39;113212;-68
2021/04/13 00:47:55;;;;;;;;;5.50;5.50;;;;;;;;3523284;39;113901;-68
2021/04/13 00:50:26;;;;;;;;;4.25;4.25;;;;;;;;3523884;39;111928;-67
2021/04/13 00:52:54;;;;;;;;;4.00;4.00;;;;;;;;3523752;39;113420;-68
2021/04/13 00:55:22;;;;;;;;;3.50;3.50;;;;;;;;3526130;39;113966;-69
2021/04/13 00:57:57;;;;;;;;;4.00;4.00;;;;;;;;3523805;39;113668;-68
2021/04/13 01:00:26;;;;;;;;;3.75;3.75;;;;;;;;3523325;39;113996;-68
2021/04/13 01:02:57;;;;;;;;;7.00;4.00;;;;;;;;3523685;39;112075;-68
2021/04/13 01:05:32;;;;;;;;;6.50;5.50;;;;;;;;3523769;39;113414;-68
2021/04/13 01:07:58;;;;;;;;;5.50;4.00;;;;;;;;3520830;39;113896;-68
2021/04/13 01:10:29;;;;;;;;;6.00;3.50;;;;;;;;3523852;39;112058;-67
2021/04/13 01:13:05;;;;;;;;;7.00;4.50;;;;;;;;3523921;39;113605;-68
2021/04/13 01:15:31;;;;;;;;;6.00;4.00;;;;;;;;3521460;39;114147;-68
2021/04/13 01:17:58;;;;;;;;;3.00;3.00;;;;;;;;3526653;39;112342;-67
2021/04/13 01:20:30;;;;;;;;;5.75;3.75;;;;;;;;3519898;39;114075;-68
2021/04/13 01:23:01;;;;;;;;;3.50;3.50;;;;;;;;3521597;39;112220;-67
2021/04/13 01:25:29;;;;;;;;;3.75;2.75;;;;;;;;3519765;39;113142;-67
2021/04/13 01:27:56;;;;;;;;;6.00;3.00;;;;;;;;3521450;39;114166;-67
2021/04/13 01:30:28;;;;;;;;;2.25;2.25;;;;;;;;3523785;39;111979;-68
2021/04/13 01:33:06;;;;;;;;;3.75;3.00;;;;;;;;3521929;39;113301;-68
2021/04/13 01:35:33;;;;;;;;;3.25;3.25;;;;;;;;3519223;39;114132;-67
2021/04/13 01:38:03;;;;;;;;;3.75;3.75;;;;;;;;3521393;39;112069;-67
2021/04/13 01:40:33;;;;;;;;;4.00;4.00;;;;;;;;3525704;39;113403;-68
2021/04/13 01:43:01;;;;;;;;;4.00;3.75;;;;;;;;3523683;39;112398;-68
2021/04/13 01:45:28;;;;;;;;;6.50;3.75;;;;;;;;3523465;39;113677;-68
2021/04/13 01:47:56;;;;;;;;;3.00;3.00;;;;;;;;3523111;39;113898;-68
2021/04/13 01:50:23;;;;;;;;;2.75;2.75;;;;;;;;3523501;39;111830;-67
2021/04/13 01:52:52;;;;;;;;;8.00;6.50;;;;;;;;3522735;39;113405;-68
2021/04/13 01:55:21;;;;;;;;;3.00;3.00;;;;;;;;3519223;39;114435;-68
2021/04/13 01:57:52;;;;;;;;;4.75;3.00;;;;;;;;3519891;39;111931;-68
2021/04/13 02:00:23;;;;;;;;;4.50;4.50;;;;;;;;3522131;39;113837;-68
2021/04/13 02:02:51;;;;;;;;;7.00;4.00;;;;;;;;3520731;39;111822;-68
2021/04/13 02:05:20;;;;;;;;;5.25;4.00;;;;;;;;3518500;39;113339;-68
2021/04/13 02:07:53;;;;;;;;;7.50;5.00;;;;;;;;3521946;39;114233;-67
2021/04/13 02:10:25;;;;;;;;;6.00;6.00;;;;;;;;3521386;39;112133;-68
2021/04/13 02:12:55;;;;;;;;;5.25;3.75;;;;;;;;3521545;39;113413;-68
2021/04/13 02:15:25;;;;;;;;;8.25;5.00;;;;;;;;3519673;39;114067;-68
2021/04/13 02:17:53;;;;;;;;;5.00;5.00;;;;;;;;3521672;39;111812;-68
2021/04/13 02:20:25;;;;;;;;;5.00;4.50;;;;;;;;3523762;39;113478;-68
2021/04/13 02:22:52;;;;;;;;;4.00;3.25;;;;;;;;3526627;39;113905;-67
2021/04/13 02:26:43;;;;;;;;;3.25;3.25;;;;;;;;3587820;39;112310;-67
2021/04/13 02:29:09;;;;;;;;;5.00;5.00;;;;;;;;3581221;39;114575;-68
2021/04/13 02:31:47;;;;;;;;;4.50;4.50;;;;;;;;3581671;39;111931;-67
2021/04/13 02:34:16;;;;;;;;;4.00;4.00;;;;;;;;3582079;39;113739;-67
2021/04/13 02:36:45;;;;;;;;;6.75;6.00;;;;;;;;3581096;39;114457;-69
2021/04/13 02:39:13;;;;;;;;;6.00;3.75;;;;;;;;3581782;39;111941;-67
2021/04/13 02:41:46;;;;;;;;;7.00;4.00;;;;;;;;3581507;39;113243;-68
2021/04/13 02:44:15;;;;;;;;;6.50;5.00;;;;;;;;3581442;39;113710;-68
2021/04/13 02:46:41;;;;;;;;;4.00;4.00;;;;;;;;3584307;39;112445;-67
2021/04/13 02:49:09;;;;;;;;;4.00;4.00;;;;;;;;3581249;39;113949;-68
2021/04/13 02:51:38;;;;;;;;;7.00;6.75;;;;;;;;3581246;39;111912;-68
2021/04/13 02:54:07;;;;;;;;;6.00;4.00;;;;;;;;3581841;39;113481;-68
2021/04/13 02:56:35;;;;;;;;;6.00;6.00;;;;;;;;3579320;39;114049;-68
2021/04/13 02:59:06;;;;;;;;;3.50;3.00;;;;;;;;3579929;39;111906;-67
2021/04/13 03:01:34;;;;;;;;;4.00;4.00;;;;;;;;3577557;39;112377;-68
2021/04/13 03:04:01;;;;;;;;;8.25;5.00;;;;;;;;3579279;39;113994;-69
2021/04/13 03:06:28;;;;;;;;;6.25;3.00;;;;;;;;3581526;39;111920;-68
2021/04/13 03:08:54;;;;;;;;;6.75;3.75;;;;;;;;3584174;39;113190;-68
2021/04/13 03:11:23;;;;;;;;;3.75;3.75;;;;;;;;3581748;39;111957;-68
2021/04/13 03:13:51;;;;;;;;;4.00;4.00;;;;;;;;3581884;39;113232;-68
2021/04/13 03:16:19;;;;;;;;;6.00;4.00;;;;;;;;3581514;39;114210;-69
2021/04/13 03:18:50;;;;;;;;;7.00;5.50;;;;;;;;3581636;39;111900;-69
2021/04/13 03:21:19;;;;;;;;;3.00;3.00;;;;;;;;3581612;39;112794;-68
2021/04/13 03:23:46;;;;;;;;;4.00;4.00;;;;;;;;3580993;39;113784;-69
2021/04/13 03:26:14;;;;;;;;;6.25;6.25;;;;;;;;3581425;39;111890;-69
2021/04/13 03:28:44;;;;;;;;;7.50;5.75;;;;;;;;3581532;39;113320;-68
2021/04/13 03:31:12;;;;;;;;;5.75;3.75;;;;;;;;3583824;39;113885;-68
2021/04/13 03:33:38;;;;;;;;;3.00;3.00;;;;;;;;3581374;39;113358;-68
2021/04/13 03:36:07;;;;;;;;;4.00;4.00;;;;;;;;3579942;39;113954;-68
2021/04/13 03:38:36;;;;;;;;;6.00;4.00;;;;;;;;3572795;39;111924;-68
2021/04/13 03:41:02;;;;;;;;;8.00;4.00;;;;;;;;3573041;39;113254;-68
2021/04/13 03:43:30;;;;;;;;;4.00;4.00;;;;;;;;3574215;39;114080;-69
2021/04/13 03:45:57;;;;;;;;;7.00;6.25;;;;;;;;3574494;39;111980;-69
2021/04/13 03:48:25;;;;;;;;;5.00;3.50;;;;;;;;3574563;39;113290;-68
2021/04/13 03:50:59;;;;;;;;;3.00;3.00;;;;;;;;3574350;39;114078;-68
2021/04/13 03:53:30;;;;;;;;;4.00;4.00;;;;;;;;3577203;39;111949;-68
2021/04/13 03:55:57;;;;;;;;;6.25;4.50;;;;;;;;3574305;39;113988;-68
2021/04/13 03:58:25;;;;;;;;;7.00;4.00;;;;;;;;3574446;39;111920;-67
2021/04/13 04:00:52;;;;;;;;;6.50;5.50;;;;;;;;3574537;39;112814;-67
2021/04/13 04:03:18;;;;;;;;;5.00;4.00;;;;;;;;3574040;39;113952;-67
2021/04/13 04:05:45;;;;;;;;;3.75;3.75;;;;;;;;3574496;39;112126;-66
2021/04/13 04:08:15;;;;;;;;;8.50;6.00;;;;;;;;3574540;39;113406;-68
2021/04/13 04:10:50;;;;;;;;;3.50;3.50;;;;;;;;3573608;39;113807;-68
2021/04/13 04:13:31;;;;;;;;;6.75;3.75;;;;;;;;3573616;39;111940;-68
2021/04/13 04:16:05;;;;;;;;;4.00;4.00;;;;;;;;3572541;39;113254;-68
2021/04/13 04:18:34;;;;;;;;;6.00;6.00;;;;;;;;3570434;39;111894;-68
2021/04/13 04:21:12;;;;;;;;;7.00;4.25;;;;;;;;3572566;39;113311;-68
2021/04/13 04:23:38;;;;;;;;;6.00;6.00;;;;;;;;3570264;39;113905;-68
2021/04/13 04:26:07;;;;;;;;;3.75;3.75;;;;;;;;3572283;39;111954;-67
2021/04/13 04:28:34;;;;;;;;;3.50;3.50;;;;;;;;3572409;39;113458;-68
2021/04/13 04:31:14;;;;;;;;;6.75;4.50;;;;;;;;3570121;39;113953;-68
2021/04/13 04:33:40;;;;;;;;;5.75;5.00;;;;;;;;3570690;39;112380;-68
2021/04/13 04:36:21;;;;;;;;;3.00;3.00;;;;;;;;3574185;39;113502;-67
2021/04/13 04:38:47;;;;;;;;;8.00;6.50;;;;;;;;3575547;39;111879;-66
2021/04/13 04:41:14;;;;;;;;;6.00;6.00;;;;;;;;3574455;39;113390;-68
2021/04/13 04:45:17;;;;;;;;;4.25;4.25;;;;;;;;3573107;39;112540;-67
2021/04/13 04:47:44;;;;;;;;;8.00;6.75;;;;;;;;3566225;39;114522;-67
2021/04/13 04:50:12;;;;;;;;;3.75;3.00;;;;;;;;3565972;39;111920;-68
2021/04/13 04:52:38;;;;;;;;;3.75;3.75;;;;;;;;3566861;39;113425;-68
2021/04/13 04:55:05;;;;;;;;;6.25;6.25;;;;;;;;3565133;39;113882;-67
2021/04/13 04:57:31;;;;;;;;;6.00;3.00;;;;;;;;3567330;39;112140;-67
2021/04/13 04:59:57;;;;;;;;;6.00;3.75;;;;;;;;3565904;39;113151;-67
2021/04/13 05:02:24;;;;;;;;;9.75;6.75;;;;;;;;3568413;39;113880;-68
2021/04/13 05:04:51;;;;;;;;;8.25;7.00;;;;;;;;3569926;39;111822;-69
2021/04/13 05:07:18;;;;;;;;;7.00;6.00;;;;;;;;3566024;39;113780;-69
2021/04/13 05:09:44;;;;;;;;;7.00;6.25;;;;;;;;3566235;39;111961;-69
2021/04/13 05:12:10;;;;;;;;;12.75;11.25;;;;;;;;3566868;39;113210;-67
2021/04/13 05:14:36;;;;;;;;;9.67;9.00;;;;;;;;3565177;39;113959;-67
2021/04/13 05:17:02;;;;;;;;;8.00;6.67;;;;;;;;3567375;39;111936;-67
2021/04/13 05:19:29;;;;;;;;;9.25;7.25;;;;;;;;3565015;39;113591;-69
2021/04/13 05:21:55;;;;;;;;;7.75;7.75;;;;;;;;3565071;39;113624;-68
2021/04/13 05:24:21;;;;;;;;;9.00;8.00;;;;;;;;3566839;39;111885;-66
2021/04/13 05:26:48;;;;;;;;;8.00;8.00;;;;;;;;3570388;39;113284;-68
2021/04/13 05:29:14;;;;;;;;;11.67;11.67;;;;;;;;3567779;39;112294;-67
2021/04/13 05:31:42;;;;;;;;;10.00;9.25;;;;;;;;3566182;39;113893;-68
2021/04/13 05:34:08;;;;;;;;;9.25;8.00;;;;;;;;3565152;39;113863;-68
2021/04/13 05:36:35;;;;;;;;;7.25;7.00;;;;;;;;3566226;39;111900;-67
2021/04/13 05:39:02;;;;;;;;;8.00;8.00;;;;;;;;3566439;39;112607;-67
2021/04/13 05:41:28;;;;;;;;;8.25;7.50;;;;;;;;3562297;39;113526;-71
2021/04/13 05:44:37;;;;;;;;;10.25;7.00;;;;;;;;3572322;39;114156;-73
2021/04/13 05:47:03;;;;;;;;;8.00;8.00;;;;;;;;3564415;39;114176;-73
2021/04/13 05:49:29;;;;;;;;;6.75;6.75;;;;;;;;3568894;39;112066;-71
2021/04/13 05:51:55;;;;;;;;;1.50;1.50;;;;;;;;3571275;39;113217;-72
2021/04/13 05:54:21;;;;;;;;;4.00;4.00;;;;;;;;3570153;39;113341;-70
2021/04/13 05:56:47;;;;;;;;;5.00;4.50;;;;;;;;3571174;39;111980;-69
2021/04/13 05:59:15;;;;;;;;;0.75;0.75;;;;;;;;3571346;39;113523;-68
2021/04/13 06:01:48;;;;;;;;;1.75;1.75;;;;;;;;3571031;39;113970;-70
2021/04/13 06:04:14;;;;;;;;;3.00;3.00;;;;;;;;3574239;39;112085;-69
2021/04/13 06:06:40;;;;;;;;;2.00;2.00;;;;;;;;3570841;39;113816;-68
2021/04/13 06:09:06;;;;;;;;;2.50;1.50;;;;;;;;3571739;39;111704;-69
2021/04/13 06:11:32;;;;;;;;;2.75;2.75;;;;;;;;3569439;39;113817;-67
2021/04/13 06:14:00;;;;;;;;;2.00;2.00;;;;;;;;3571200;39;113997;-69
2021/04/13 06:16:32;;;;;;;;;4.00;4.00;;;;;;;;3571558;39;112819;-67
2021/04/13 06:18:59;;;;;;;;;2.00;2.00;;;;;;;;3571450;39;113609;-67
2021/04/13 06:21:25;;;;;;;;;3.75;3.75;;;;;;;;3570662;39;113447;-66
2021/04/13 06:23:52;;;;;;;;;5.00;3.75;;;;;;;;3571329;39;111850;-66
2021/04/13 06:26:18;;;;;;;;;2.00;1.00;;;;;;;;3574052;39;113329;-69
2021/04/13 06:28:44;;;;;;;;;1.00;1.00;;;;;;;;3571377;39;111994;-66
2021/04/13 06:31:10;;;;;;;;;1.00;1.00;;;;;;;;3571754;39;113311;-67
2021/04/13 06:33:36;;;;;;;;;2.25;2.25;;;;;;;;3570953;39;114422;-67
2021/04/13 06:36:05;;;;;;;;;3.00;3.00;;;;;;;;3569387;39;111859;-66
2021/04/13 06:38:31;;;;;;;;;2.00;2.00;;;;;;;;3569416;39;113257;-67
2021/04/13 06:41:02;;;;;;;;;1.00;1.00;;;;;;;;3570373;39;114036;-67
2021/04/13 06:43:45;;;;;;;;;1.00;1.00;;;;;;;;3571390;39;113162;-68
2021/04/13 06:46:17;;;;;;;;;0.75;0.75;;;;;;;;3567845;39;113384;-68
2021/04/13 06:48:50;;;;;;;;;1.00;1.00;;;;;;;;3573359;39;113841;-68
2021/04/13 06:51:22;;;;;;;;;0.00;0.00;;;;;;;;3571209;39;113527;-67
2021/04/13 06:53:56;;;;;;;;;0.00;0.00;;;;;;;;3568597;39;114105;-66
2021/04/13 06:56:31;;;;;;;;;0.00;0.00;;;;;;;;3564615;39;111832;-67
2021/04/13 06:59:13;;;;;;;;;0.00;0.00;;;;;;;;3561135;39;112295;-68
2021/04/13 07:01:40;;;;;;;;;0.00;0.00;;;;;;;;3560336;39;113887;-68
2021/04/13 07:04:09;;;;;;;;;0.00;0.00;;;;;;;;3564528;39;111736;-68
2021/04/13 07:06:38;;;;;;;;;0.00;0.00;;;;;;;;3564083;39;113423;-68
2021/04/13 07:09:08;;;;;;;;;0.00;0.00;;;;;;;;3563468;39;114810;-68
2021/04/13 07:11:37;;;;;;;;;0.00;0.00;;;;;;;;3566016;39;112707;-71
2021/04/13 07:14:06;;;;;;;;;0.00;0.00;;;;;;;;3562930;39;114687;-69
2021/04/13 07:16:37;;;;;;;;;0.00;0.00;;;;;;;;3563573;39;111820;-69
2021/04/13 07:19:10;;;;;;;;;0.00;0.00;;;;;;;;3563230;39;113876;-70
2021/04/13 07:21:39;;;;;;;;;0.00;0.00;;;;;;;;3562762;39;114239;-70
2021/04/13 07:24:10;;;;;;;;;0.00;0.00;;;;;;;;3562159;39;111953;-70
2021/04/13 07:26:38;;;;;;;;;0.00;0.00;;;;;;;;3563921;39;113745;-71
2021/04/13 07:29:10;;;;;;;;;0.00;0.00;;;;;;;;3563831;39;113876;-72
2021/04/13 07:31:39;;;;;;;;;0.00;0.00;;;;;;;;3562676;39;111952;-72
2021/04/13 07:34:06;;;;;;;;;0.00;0.00;;;;;;;;3566436;39;113405;-73
2021/04/13 07:36:34;;;;;;;;;0.00;0.00;;;;;;;;3564195;39;111950;-75
2021/04/13 07:39:03;;;;;;;;;0.00;0.00;;;;;;;;3560154;39;113204;-73
2021/04/13 07:41:32;;;;;;;;;0.00;0.00;;;;;;;;3563697;39;113962;-74
2021/04/13 07:44:02;;;;;;;;;1.00;0.00;;;;;;;;3564280;39;111928;-73
2021/04/13 07:46:38;;;;;;;;;0.00;0.00;;;;;;;;3564308;39;114534;-74
2021/04/13 07:49:10;;;;;;;;;0.00;0.00;;;;;;;;3562026;39;114086;-74
2021/04/13 07:51:40;;;;;;;;;0.00;0.00;;;;;;;;3560498;39;111712;-74
2021/04/13 07:54:14;;;;;;;;;0.25;0.25;;;;;;;;3564297;39;113424;-72
2021/04/13 07:56:44;;;;;;;;;0.75;0.25;;;;;;;;3566394;39;112955;-71
2021/04/13 07:59:17;;;;;;;;;0.00;0.00;;;;;;;;3564304;39;113754;-70
2021/04/13 08:01:44;;;;;;;;;0.00;0.00;;;;;;;;3563844;39;114613;-71
2021/04/13 08:04:10;;;;;;;;;0.00;0.00;;;;;;;;3564274;39;111936;-71
2021/04/13 08:06:41;;;;;;;;;0.00;0.00;;;;;;;;3563515;39;113278;-73
2021/04/13 08:09:14;;;;;;;;;0.00;0.00;;;;;;;;3563619;39;114212;-74
2021/04/13 08:12:01;;;;;;;;;1.00;0.00;;;;;;;;3564086;39;111802;-74
2021/04/13 08:14:31;;;;;;;;;0.00;0.00;;;;;;;;3563770;39;113570;-72
2021/04/13 08:17:03;;;;;;;;;0.00;0.00;;;;;;;;3566394;39;114127;-72
2021/04/13 08:19:31;;;;;;;;;0.00;0.00;;;;;;;;3561877;39;113351;-73
2021/04/13 08:22:01;;;;;;;;;0.00;0.00;;;;;;;;3563723;39;114412;-73
2021/04/13 08:24:37;;;;;;;;;0.00;0.00;;;;;;;;3563894;39;112806;-72
2021/04/13 08:27:30;;;;;;;;;0.00;0.00;;;;;;;;3560470;39;114026;-71
2021/04/13 08:30:02;;;;;;;;;0.00;0.00;;;;;;;;3563444;39;115156;-71
2021/04/13 08:32:50;;;;;;;;;0.00;0.00;;;;;;;;3563772;39;112166;-71
2021/04/13 08:35:25;;;;;;;;;0.00;0.00;;;;;;;;3563238;39;113568;-71
2021/04/13 08:37:53;;;;;;;;;0.00;0.00;;;;;;;;3563594;39;113862;-74
2021/04/13 08:40:34;;;;;;;;;0.00;0.00;;;;;;;;3566673;39;111872;-72
2021/04/13 08:43:08;;;;;;;;;0.00;0.00;;;;;;;;3561704;39;114059;-71
2021/04/13 08:45:37;;;;;;;;;0.00;0.00;;;;;;;;3562373;39;112327;-71
2021/04/13 08:48:07;;;;;;;;;0.00;0.00;;;;;;;;3560492;39;113184;-71
2021/04/13 08:50:37;;;;;;;;;0.00;0.00;;;;;;;;3561782;39;113857;-72
2021/04/13 08:53:05;;;;;;;;;0.00;0.00;;;;;;;;3558397;39;112072;-71
2021/04/13 08:55:47;;;;;;;;;0.00;0.00;;;;;;;;3561710;39;113310;-71
2021/04/13 08:58:33;;;;;;;;;0.00;0.00;;;;;;;;3557571;39;112770;-72
2021/04/13 09:01:00;;;;;;;;;0.00;0.00;;;;;;;;3562577;39;111939;-72
2021/04/13 09:03:28;;;;;;;;;0.00;0.00;;;;;;;;3565293;39;113402;-72
2021/04/13 09:06:10;;;;;;;;;0.00;0.00;;;;;;;;3563152;39;113178;-72
2021/04/13 09:08:46;;;;;;;;;0.00;0.00;;;;;;;;3563299;39;113293;-73
2021/04/13 09:11:17;;;;;;;;;0.00;0.00;;;;;;;;3561327;39;114671;-73
2021/04/13 09:13:46;;;;;;;;;0.00;0.00;;;;;;;;3563094;39;111993;-73
2021/04/13 09:16:18;;;;;;;;;0.00;0.00;;;;;;;;3564162;39;113419;-73
2021/04/13 09:18:50;;;;;;;;;0.00;0.00;;;;;;;;3563032;39;113838;-73
2021/04/13 09:21:25;;;;;;;;;0.00;0.00;;;;;;;;3562561;39;111936;-73
2021/04/13 09:23:56;;;;;;;;;0.00;0.00;;;;;;;;3562687;39;113823;-73
2021/04/13 09:26:25;;;;;;;;;0.00;0.00;;;;;;;;3565764;39;113706;-73
2021/04/13 09:28:52;;;;;;;;;0.00;0.00;;;;;;;;3563735;39;113554;-72
2021/04/13 09:31:28;;;;;;;;;0.00;0.00;;;;;;;;3563174;39;113992;-73
2021/04/13 09:33:57;;;;;;;;;0.00;0.00;;;;;;;;3563773;39;112077;-72
2021/04/13 09:36:33;;;;;;;;;0.00;0.00;;;;;;;;3563524;39;113316;-72
2021/04/13 09:39:06;;;;;;;;;0.00;0.00;;;;;;;;3561574;39;113990;-73
2021/04/13 09:41:43;;;;;;;;;0.50;0.00;;;;;;;;3562708;39;111919;-74
2021/04/13 09:44:17;;;;;;;;;0.00;0.00;;;;;;;;3558605;39;112479;-71
2021/04/13 09:47:00;;;;;;;;;0.00;0.00;;;;;;;;3563296;39;113833;-72
2021/04/13 09:49:35;;;;;;;;;1.00;0.00;;;;;;;;3566141;39;113479;-70
2021/04/13 09:52:16;;;;;;;;;0.00;0.00;;;;;;;;3559137;39;113951;-70
2021/04/13 09:54:43;;;;;;;;;0.00;0.00;;;;;;;;3559115;39;112047;-71
2021/04/13 09:57:28;;;;;;;;;0.00;0.00;;;;;;;;3563353;39;113167;-70
2021/04/13 10:00:09;;;;;;;;;0.00;0.00;;;;;;;;3562941;39;113900;-71
2021/04/13 10:02:50;;;;;;;;;0.00;0.00;;;;;;;;3536086;39;111971;-69
2021/04/13 10:05:17;;;;;;;;;0.00;0.00;;;;;;;;3563362;39;113390;-70
2021/04/13 10:07:53;;;;;;;;;0.00;0.00;;;;;;;;3562808;39;114420;-70
2021/04/13 10:10:22;;;;;;;;;0.00;0.00;;;;;;;;3565967;39;111741;-70
2021/04/13 10:13:06;;;;;;;;;0.00;0.00;;;;;;;;3562704;39;113972;-71
2021/04/13 10:15:48;;;;;;;;;0.00;0.00;;;;;;;;3553924;39;111947;-71
2021/04/13 10:18:31;;;;;;;;;0.00;0.00;;;;;;;;3560286;39;113813;-72
2021/04/13 10:21:00;;;;;;;;;0.00;0.00;;;;;;;;3562864;39;114914;-71
2021/04/13 10:23:41;;;;;;;;;0.00;0.00;;;;;;;;3563055;39;111980;-71
2021/04/13 10:26:31;;;;;;;;;0.00;0.00;;;;;;;;3533205;39;112352;-71
2021/04/13 10:29:12;;;;;;;;;0.00;0.00;;;;;;;;3562742;39;114241;-71
2021/04/13 10:31:56;;;;;;;;;0.00;0.00;;;;;;;;3563042;39;111904;-70
2021/04/13 10:34:40;;;;;;;;;0.00;0.00;;;;;;;;3566679;39;113166;-71
2021/04/13 10:37:40;;;;;;;;;0.00;0.00;;;;;;;;3560967;39;111944;-70
2021/04/13 10:40:23;;;;;;;;;0.00;0.00;;;;;;;;3563076;39;112726;-70
2021/04/13 10:43:10;;;;;;;;;0.00;0.00;;;;;;;;3564008;39;114306;-70
2021/04/13 10:45:52;;;;;;;;;1.00;1.00;;;;;;;;3562793;39;112105;-71
2021/04/13 10:48:42;;;;;;;;;0.00;0.00;;;;;;;;3564267;39;113314;-70
2021/04/13 10:51:27;;;;;;;;;0.00;0.00;;;;;;;;3560521;39;113903;-70
2021/04/13 10:54:17;;;;;;;;;0.00;0.00;;;;;;;;3564545;39;111986;-70
2021/04/13 10:56:52;;;;;;;;;0.00;0.00;;;;;;;;3564081;39;113262;-69
2021/04/13 10:59:36;;;;;;;;;0.00;0.00;;;;;;;;3566976;39;114031;-70
2021/04/13 11:02:13;;;;;;;;;1.00;0.00;;;;;;;;3563240;39;113144;-72
2021/04/13 11:04:54;;;;;;;;;0.00;0.00;;;;;;;;3564289;39;114140;-68
2021/04/13 11:07:41;;;;;;;;;0.50;0.00;;;;;;;;3560868;39;112719;-70
2021/04/13 11:10:24;;;;;;;;;0.00;0.00;;;;;;;;3563100;39;113558;-72
2021/04/13 11:13:05;;;;;;;;;0.00;0.00;;;;;;;;3550433;39;114479;-70
2021/04/13 11:15:45;;;;;;;;;0.00;0.00;;;;;;;;3562587;39;112000;-71
2021/04/13 11:18:27;;;;;;;;;0.00;0.00;;;;;;;;3539839;39;112929;-68
2021/04/13 11:21:20;;;;;;;;;0.00;0.00;;;;;;;;3562882;39;112917;-68
2021/04/13 11:24:04;;;;;;;;;0.00;0.00;;;;;;;;3566071;39;112225;-69
2021/04/13 11:26:55;;;;;;;;;0.00;0.00;;;;;;;;3539398;39;113918;-67
2021/04/13 11:29:39;;;;;;;;;0.00;0.00;;;;;;;;3562802;39;111997;-70
2021/04/13 11:32:18;;;;;;;;;0.00;0.00;;;;;;;;3562850;39;113256;-69
2021/04/13 11:34:55;;;;;;;;;0.00;0.00;;;;;;;;3564400;39;112870;-68
2021/04/13 11:37:36;;;;;;;;;0.00;0.00;;;;;;;;3564339;39;111986;-68
2021/04/13 11:40:10;;;;;;;;;0.00;0.00;;;;;;;;3561695;39;113444;-68
2021/04/13 11:42:38;;;;;;;;;0.00;0.00;;;;;;;;3562734;39;114673;-68
2021/04/13 11:45:14;;;;;;;;;0.00;0.00;;;;;;;;3563056;39;112752;-68
2021/04/13 11:47:42;;;;;;;;;0.25;0.00;;;;;;;;3565419;39;113149;-69
2021/04/13 11:50:16;;;;;;;;;0.00;0.00;;;;;;;;3562078;39;111863;-68
2021/04/13 11:52:44;;;;;;;;;0.00;0.00;;;;;;;;3563367;39;113613;-68
2021/04/13 11:55:29;;;;;;;;;0.00;0.00;;;;;;;;3562884;39;113965;-68
2021/04/13 11:58:07;;;;;;;;;0.00;0.00;;;;;;;;3563373;39;112495;-68
2021/04/13 12:00:33;;;;;;;;;0.00;0.00;;;;;;;;3563200;39;113405;-68
2021/04/13 12:03:17;;;;;;;;;0.00;0.00;;;;;;;;3562962;39;113974;-68
2021/04/13 12:05:46;;;;;;;;;0.00;0.00;;;;;;;;3551607;39;112692;-69
2021/04/13 12:08:30;;;;;;;;;0.00;0.00;;;;;;;;3563252;39;113254;-68
2021/04/13 12:10:58;;;;;;;;;1.00;0.00;;;;;;;;3565160;39;113917;-69
2021/04/13 12:13:38;;;;;;;;;0.00;0.00;;;;;;;;3560017;39;112307;-68
2021/04/13 12:16:04;;;;;;;;;0.00;0.00;;;;;;;;3562626;39;113978;-69
2021/04/13 12:18:49;;;;;;;;;0.00;0.00;;;;;;;;3562974;39;113044;-69
2021/04/13 12:21:34;;;;;;;;;0.00;0.00;;;;;;;;3563231;39;113766;-69
2021/04/13 12:24:02;;;;;;;;;0.00;0.00;;;;;;;;3561737;39;113895;-69
2021/04/13 12:26:33;;;;;;;;;0.00;0.00;;;;;;;;3561476;39;111839;-69
2021/04/13 12:29:19;;;;;;;;;0.00;0.00;;;;;;;;3562249;39;113247;-68
2021/04/13 12:32:06;;;;;;;;;0.00;0.00;;;;;;;;3565108;39;113644;-70
2021/04/13 12:34:47;;;;;;;;;0.00;0.00;;;;;;;;3559858;39;112608;-68
2021/04/13 12:37:28;;;;;;;;;1.00;0.00;;;;;;;;3562158;39;114062;-68
2021/04/13 12:39:56;;;;;;;;;0.00;0.00;;;;;;;;3563791;39;111918;-68
2021/04/13 12:42:28;;;;;;;;;0.25;0.00;;;;;;;;3563888;39;113238;-67
2021/04/13 12:45:08;;;;;;;;;0.00;0.00;;;;;;;;3563369;39;114410;-68
2021/04/13 12:47:34;;;;;;;;;0.00;0.00;;;;;;;;3560325;39;111924;-68
2021/04/13 12:50:00;;;;;;;;;0.00;0.00;;;;;;;;3564051;39;113407;-70
2021/04/13 12:52:30;;;;;;;;;0.00;0.00;;;;;;;;3563006;39;114411;-67
2021/04/13 12:55:09;;;;;;;;;0.00;0.00;;;;;;;;3564849;39;111900;-68
2021/04/13 12:57:48;;;;;;;;;0.00;0.00;;;;;;;;3559763;39;114350;-67
2021/04/13 13:00:15;;;;;;;;;0.00;0.00;;;;;;;;3564458;39;113112;-67
2021/04/13 13:02:42;;;;;;;;;0.00;0.00;;;;;;;;3563984;39;113704;-68
2021/04/13 13:05:18;;;;;;;;;0.00;0.00;;;;;;;;3563323;39;113956;-68
2021/04/13 13:07:50;;;;;;;;;0.00;0.00;;;;;;;;3563974;39;111914;-68
2021/04/13 13:10:18;;;;;;;;;0.00;0.00;;;;;;;;3563836;39;112376;-67
2021/04/13 13:12:44;;;;;;;;;0.00;0.00;;;;;;;;3563482;39;114313;-69
2021/04/13 13:15:11;;;;;;;;;0.00;0.00;;;;;;;;3563562;39;112353;-69
2021/04/13 13:17:39;;;;;;;;;0.00;0.00;;;;;;;;3563732;39;113375;-68
2021/04/13 13:20:07;;;;;;;;;0.25;0.00;;;;;;;;3563286;39;112666;-69
2021/04/13 13:22:34;;;;;;;;;0.00;0.00;;;;;;;;3562953;39;113437;-69
2021/04/13 13:25:11;;;;;;;;;0.00;0.00;;;;;;;;3562655;39;114550;-67
2021/04/13 13:27:38;;;;;;;;;0.00;0.00;;;;;;;;3562697;39;111867;-67
2021/04/13 13:30:06;;;;;;;;;0.00;0.00;;;;;;;;3562930;39;113427;-68
2021/04/13 13:32:34;;;;;;;;;0.00;0.00;;;;;;;;3561842;39;114296;-68
2021/04/13 13:35:01;;;;;;;;;0.00;0.00;;;;;;;;3562691;39;112645;-67
2021/04/13 13:37:31;;;;;;;;;0.00;0.00;;;;;;;;3562165;39;113374;-67
2021/04/13 13:39:59;;;;;;;;;0.00;0.00;;;;;;;;3560930;39;113138;-68
2021/04/13 13:42:26;;;;;;;;;0.00;0.00;;;;;;;;3562121;39;114852;-66
2021/04/13 13:44:53;;;;;;;;;0.00;0.00;;;;;;;;3561508;39;114232;-68
2021/04/13 13:47:26;;;;;;;;;0.00;0.00;;;;;;;;3561710;39;112025;-67
2021/04/13 13:49:53;;;;;;;;;0.00;0.00;;;;;;;;3562074;39;113135;-67
2021/04/13 13:52:36;;;;;;;;;0.00;0.00;;;;;;;;3561274;39;113989;-67
2021/04/13 13:55:08;;;;;;;;;0.00;0.00;;;;;;;;3562127;39;113006;-68
2021/04/13 13:57:36;;;;;;;;;0.00;0.00;;;;;;;;3562030;39;113394;-67
2021/04/13 14:00:04;;;;;;;;;0.00;0.00;;;;;;;;3561952;39;114209;-67
2021/04/13 14:02:32;;;;;;;;;0.00;0.00;;;;;;;;3560905;39;112084;-68
2021/04/13 14:05:09;;;;;;;;;0.00;0.00;;;;;;;;3562323;39;113802;-67
2021/04/13 14:07:35;;;;;;;;;0.00;0.00;;;;;;;;3563279;39;112124;-67
2021/04/13 14:10:09;;;;;;;;;0.00;0.00;;;;;;;;3560448;39;116073;-67
2021/04/13 14:12:36;;;;;;;;;0.00;0.00;;;;;;;;3562415;39;114481;-67
2021/04/13 14:15:12;;;;;;;;;0.00;0.00;;;;;;;;3563254;39;113219;-68
2021/04/13 14:17:39;;;;;;;;;0.00;0.00;;;;;;;;3561729;39;113434;-67
2021/04/13 14:20:05;;;;;;;;;1.00;0.00;;;;;;;;3563187;39;113790;-68
2021/04/13 14:22:32;;;;;;;;;0.00;0.00;;;;;;;;3563563;39;112925;-68
2021/04/13 14:25:18;;;;;;;;;0.00;0.00;;;;;;;;3566429;39;113246;-69
2021/04/13 14:27:44;;;;;;;;;0.00;0.00;;;;;;;;3558071;39;112023;-70
2021/04/13 14:30:13;;;;;;;;;0.00;0.00;;;;;;;;3563776;39;113222;-69
2021/04/13 14:32:40;;;;;;;;;0.00;0.00;;;;;;;;3563265;39;114025;-69
2021/04/13 14:35:08;;;;;;;;;0.00;0.00;;;;;;;;3563805;39;111898;-68
2021/04/13 14:37:35;;;;;;;;;0.00;0.00;;;;;;;;3563997;39;113467;-68
2021/04/13 14:40:03;;;;;;;;;0.00;0.00;;;;;;;;3563713;39;114071;-68
2021/04/13 14:42:29;;;;;;;;;1.00;0.00;;;;;;;;3564296;39;112150;-68
2021/04/13 14:44:56;;;;;;;;;0.00;0.00;;;;;;;;3566837;39;113387;-69
2021/04/13 14:47:25;;;;;;;;;0.00;0.00;;;;;;;;3563456;39;112830;-67
2021/04/13 14:49:53;;;;;;;;;0.00;0.00;;;;;;;;3563588;39;113366;-75
2021/04/13 14:52:19;;;;;;;;;0.00;0.00;;;;;;;;3563395;39;113812;-71
2021/04/13 14:54:45;;;;;;;;;0.25;0.00;;;;;;;;3563690;39;111958;-68
2021/04/13 14:57:12;;;;;;;;;0.00;0.00;;;;;;;;3560995;39;113411;-68